Ide Min — PC8366 — position and weather

sailwx.info

Track history (hours):
 
Tides and Currents Weather Stations Pressure Air Temp Water Temp Dewpoint Dewpoint Depression Visibility Wind Speed Wind Dir Waves Ship Positions

Ide Min (Netherlands)

Ship's website: http://www.idemin.nl/english/english.html

Last reported at 2016-Sep-26 20:31 UTC. Time now 2016-Sep-27 00:09 UTC.
Position N 54°41' E 009°60'.

Length 40 m; draft 2.4 m.

MMSI: 244537000.

Date/timePositionNaut miles runAvg speedWind from/ knotsBaromVisibWave heightAir tempDewpointWater temp
2016-Sep-26 20:31N 54°41' E 009°60'0 0.0
2016-Sep-26 19:31N 54°41' E 009°60'3 0.8
2016-Sep-26 15:25N 54°38' E 010°03'4 2.3
2016-Sep-26 13:33N 54°34' E 010°05'7 3.2
2016-Sep-26 11:16N 54°29' E 010°13'7 2.4
2016-Sep-26 08:31N 54°22' E 010°09'0 0.0
2016-Sep-26 02:31N 54°22' E 010°09'0 0.0
2016-Sep-26 01:31N 54°22' E 010°09'0 0.0
2016-Sep-26 00:31N 54°22' E 010°09'0 0.0
2016-Sep-25 21:31N 54°22' E 010°09'0 0.0
2016-Sep-25 17:28N 54°22' E 010°09'0 0.0
2016-Sep-25 12:31N 54°22' E 010°09'0 0.0
2016-Sep-25 11:31N 54°22' E 010°09'0 0.0
2016-Sep-25 10:31N 54°22' E 010°09'0 0.0
2016-Sep-25 09:31N 54°22' E 010°09'0 0.0
2016-Sep-25 07:31N 54°22' E 010°09'0 0.0
2016-Sep-25 04:31N 54°22' E 010°09'0 0.0
2016-Sep-25 00:31N 54°22' E 010°09'0 0.0
2016-Sep-24 22:31N 54°22' E 010°09'0 0.0
2016-Sep-24 21:31N 54°22' E 010°09'0 0.0
2016-Sep-24 19:31N 54°22' E 010°09'0 0.0
2016-Sep-24 18:31N 54°22' E 010°09'0 0.0
2016-Sep-24 17:31N 54°22' E 010°09'0 0.0
2016-Sep-24 16:31N 54°22' E 010°09'0 0.0
2016-Sep-24 14:31N 54°22' E 010°09'0 0.0
2016-Sep-24 12:31N 54°22' E 010°09'0 0.0
2016-Sep-24 10:31N 54°22' E 010°09'0 0.0
2016-Sep-24 09:28N 54°22' E 010°09'  
Track history (hours):
 
Tides and Currents Weather Stations Pressure Air Temp Water Temp Dewpoint Dewpoint Depression Visibility Wind Speed Wind Dir Waves Ship Positions

Ide Min (Netherlands)

Ship's website: http://www.idemin.nl/english/english.html

Last reported at 2016-Sep-26 20:31 UTC. Time now 2016-Sep-27 00:09 UTC.
Position N 54°41' E 009°60'.

Length 40 m; draft 2.4 m.

MMSI: 244537000.

Date/timePositionNaut miles runAvg speedWind from/ knotsBaromVisibWave heightAir tempDewpointWater temp
2016-Sep-26 20:31N 54°41' E 009°60'0 0.0
2016-Sep-26 19:31N 54°41' E 009°60'3 0.8
2016-Sep-26 15:25N 54°38' E 010°03'4 2.3
2016-Sep-26 13:33N 54°34' E 010°05'7 3.2
2016-Sep-26 11:16N 54°29' E 010°13'7 2.4
2016-Sep-26 08:31N 54°22' E 010°09'0 0.0
2016-Sep-26 02:31N 54°22' E 010°09'0 0.0
2016-Sep-26 01:31N 54°22' E 010°09'0 0.0
2016-Sep-26 00:31N 54°22' E 010°09'0 0.0
2016-Sep-25 21:31N 54°22' E 010°09'0 0.0
2016-Sep-25 17:28N 54°22' E 010°09'0 0.0
2016-Sep-25 12:31N 54°22' E 010°09'0 0.0
2016-Sep-25 11:31N 54°22' E 010°09'0 0.0
2016-Sep-25 10:31N 54°22' E 010°09'0 0.0
2016-Sep-25 09:31N 54°22' E 010°09'0 0.0
2016-Sep-25 07:31N 54°22' E 010°09'0 0.0
2016-Sep-25 04:31N 54°22' E 010°09'0 0.0
2016-Sep-25 00:31N 54°22' E 010°09'0 0.0
2016-Sep-24 22:31N 54°22' E 010°09'0 0.0
2016-Sep-24 21:31N 54°22' E 010°09'0 0.0
2016-Sep-24 19:31N 54°22' E 010°09'0 0.0
2016-Sep-24 18:31N 54°22' E 010°09'0 0.0
2016-Sep-24 17:31N 54°22' E 010°09'0 0.0
2016-Sep-24 16:31N 54°22' E 010°09'0 0.0
2016-Sep-24 14:31N 54°22' E 010°09'0 0.0
2016-Sep-24 12:31N 54°22' E 010°09'0 0.0
2016-Sep-24 10:31N 54°22' E 010°09'0 0.0
2016-Sep-24 09:28N 54°22' E 010°09'  

Dump ship's entire track history